Logo AVAMET
Benvolgut visitant, si us plau, ingressa Recuperar contrasenya

Xàbia Tossal Gros

Dades diàries. Acumulats / Últims 30 dies disponibles

Data Temperatura (°C) Humitat rel. (%) Pressió rel. (hPa) Vent (km/h) Precipitació
Mínima Mitjana Màxima Amplitud
tèrmica
Mínima Mitjana Màxima Mínima Mitjana Màxima Predom. Mitjana Ràfega
màxima
Total
(mm)
Índex-n
Mínima Mitjana Màxima Mínima Mitjana Màxima n
0 a 1
P0 max
mm 5'
Dades mensuals acumulades fins l'últim dia disponible
01/2020 5,5 8,8 12,7 10,6 10,5 12,8 16,8 11,3 36 79 99 1.011 1.026 1.034   19,9 133,6 185,8
Dades anuals acumulades fins l'últim dia disponible
2020 5,5 8,8 12,7 10,6 10,5 12,8 16,8 11,3 36 79 99 1.011 1.026 1.034   19,9 133,6 185,8
Últims 30 dies disponibles
22-01-2020 9,1     10,1     11,6 2,5 80 91 97 1.016 1.018 1.019 SO 17,6 46,7 0,0
21-01-2020 7,7     10,6     12,5 4,8 78 92 99 1.012 1.014 1.019 E 35,4 101,4 7,6 0,37 0,40
20-01-2020 5,5     8,2     10,5 5,0 90 98 99 1.013 1.016 1.019 NE 53,6 133,6 145,6 0,54 10,90
19-01-2020 5,8     9,3     14,7 8,9 63 87 98 1.011 1.015 1.020 NW 47,8 132,0 26,6 0,50 2,70
18-01-2020 11,1     12,3     14,2 3,1 53 70 86 1.021 1.027 1.032 SW 16,3 40,2 0,0
17-01-2020 12,7     14,7     16,8 4,1 36 50 68 1.027 1.029 1.032 WNW 16,3 45,1 0,0
16-01-2020 10,8     13,0     15,2 4,4 55 71 85 1.026 1.027 1.029 SW 16,4 32,2 0,0
15-01-2020 10,8     12,8     15,0 4,2 41 57 74 1.023 1.025 1.028 WNW 12,9 33,8 0,0
14-01-2020 9,8     11,3     12,6 2,8 37 60 86 1.021 1.022 1.024 SW 10,6 33,8 0,0
13-01-2020 7,6     10,1     12,4 4,8 46 68 88 1.023 1.025 1.030 SW 17,4 35,4 0,0
12-01-2020 8,3     9,3     10,6 2,3 53 73 91 1.028 1.030 1.031 NW 10,5 32,2 0,0
11-01-2020 7,2     9,2     10,8 3,6 75 81 87 1.028 1.030 1.032 NW 20,1 56,3 0,0
10-01-2020 7,3     9,8     11,8 4,5 68 84 98 1.023 1.024 1.028 NNW 32,3 93,3 5,8 0,58 1,00
09-01-2020 8,9     10,1     12,8 3,9 75 88 95 1.024 1.027 1.030 NW 18,3 46,7 0,0
08-01-2020 9,1     10,5     11,9 2,8 69 86 97 1.028 1.029 1.031 NW 13,8 35,4 0,0
07-01-2020 8,2     10,2     13,7 5,5 55 88 97 1.029 1.030 1.032 NW 13,0 33,8 0,2
06-01-2020 8,7     10,0     12,6 3,9 66 89 95 1.028 1.029 1.030 NW 16,1 46,7 0,0
05-01-2020 10,2     11,4     13,4 3,2 58 68 82 1.027 1.029 1.032 SW 14,3 32,2 0,0
04-01-2020 8,9     10,5     12,9 4,0 61 79 93 1.032 1.032 1.034 NW 8,0 33,8 0,0
03-01-2020 8,1     9,5     11,5 3,4 83 89 96 1.030 1.031 1.032 SW 13,0 37,0 0,0
02-01-2020 8,7     9,8     11,5 2,8 79 86 94 1.030 1.031 1.033 SW 23,3 45,1 0,0
01-01-2020 8,8     10,2     12,3 3,5 80 89 96 1.031 1.032 1.033 SW 10,9 25,7 0,0
31-12-2019 7,9     9,7     10,9 3,0 83 90 95 1.032 1.032 1.034 OSO 10,4 22,5 0,0
30-12-2019 8,7     9,6     10,5 1,8 81 90 97 1.032 1.032 1.034 NW 13,5 30,6 0,0
29-12-2019 8,2     9,6     11,7 3,5 86 92 96 1.031 1.032 1.034 NW 9,5 19,3 0,2
28-12-2019 8,8     10,2     12,1 3,3 88 93 98 1.029 1.030 1.032 NW 6,9 25,7 0,0
27-12-2019 11,6     12,9     14,5 2,9 72 83 95 1.027 1.029 1.030 SW 14,2 27,4 0,0
26-12-2019 13,3     17,8     21,0 7,7 24 47 84 1.022 1.025 1.030 NW 10,6 27,4 0,0
25-12-2019 14,4     17,1     19,6 5,2 41 62 83 1.023 1.024 1.026 SW 10,5 27,4 0,0
24-12-2019 17,4     18,6     20,4 3,0 44 50 60 1.025 1.027 1.028 WNW 12,7 29,0 0,0
Últims 13 mesos disponibles
12/2019 7,9 11,4 17,4 13,3 10,5 15,5 21,0 13,1 47 74 96 1.004 1.019 1.032 NW 18,8 99,8 71,0
11/2019 7,8 12,1 19,6 14,3 11,7 16,9 24,7 16,9 46 61 84 999 1.011 1.019 WNW 21,2 109,4 12,0
10/2019 11,2 17,1 20,8 19,0 15,0 21,6 28,4 17,2 51 75 95 1.008 1.016 1.022 SW 16,8 95,0 62,0
09/2019 12,2 19,4 22,8 21,7 19,9 24,2 29,1 16,9 61 84 97 1.010 1.017 1.023 NW 20,0 136,8 142,4
08/2019 17,4 21,7 24,4 24,0 23,6 27,0 35,2 17,8 50 81 92 1.011 1.016 1.020 NW 20,0 59,5 20,2
07/2019 20,1 21,9 25,3 24,4 24,2 27,8 33,7 13,6 46 74 88 1.006 1.014 1.021 NW 18,9 99,8 2,8
06/2019 13,1 17,5 24,9 20,2 17,0 23,5 31,2 18,1 47 73 91 1.009 1.015 1.022 NW 23,2 69,2 0,6
05/2019 10,2 14,3 20,8 16,4 15,4 19,4 25,4 15,2 55 75 93 1.005 1.015 1.025 NW 20,4 78,9 13,4
04/2019 7,4 11,2 15,5 13,5 12,3 16,5 24,4 17,0 34 74 99 1.000 1.013 1.025 NW 23,2 103,0 238,4
03/2019 5,4 10,7 17,1 13,1 10,1 16,3 24,8 19,4 36 65 97 1.011 1.023 1.030 NW 20,6 101,4 28,0
02/2019 5,3 9,8 12,5 12,0 9,3 14,5 20,9 15,6 29 66 92 996 1.025 1.033 OSO 13,8 93,3 2,8
01/2019 5,9 10,8 13,0 13,0 11,3 15,7 20,7 14,8 35 60 83 1.004 1.019 1.031 W 4,8 160,9 4,2
12/2018 5,9 11,4 14,9 13,6 10,3 16,6 23,4 17,5 37 68 96 1.008 1.025 1.031 OSO 14,7 160,9 34,8
Tots els anys disponibles
2019 5,3 14,8 25,3 17,1 9,3 19,9 35,2 29,9 29 72 99 996 1.017 1.033 NW 18,8 160,9 601,8
2018 1,7 14,4 24,1 16,6 5,9 19,4 31,2 29,5 37 76 100 998 1.018 1.031 SW 8,5 160,9 518,2
2017 4,1 16,7 26,4 18,9 9,1 21,7 32,2 28,1 SSW 15,1 101,0 137,0
Temperatura (°C)
Humitat relativa (%)
Velocitat del vent i ràfega màxima (km/h)
Direcció del vent (°)
Pressió (hPa)
Precipitació (mm)
Nota sobre les dades: s'avisa a l'usuari de la provisionalitat i no oficialitat d'aquestes dades
Logo AVAMET blanc
Web allotjada a Sollutia
Llicència de Creative CommonsLa web d'AVAMET i els seus continguts estan subjectes a una llicència de
Reconeixement - No Comercial - Compartir igual
Últimes estacions: Xixona - Els Ameradors (Soci), Agres - El Tossal (Soci), Xàbia - Bevenguts (MeteoXàbia), Llíria (Aj. Soci/Inforatge), Orihuela - Lo Capitán, Cox & Guardamar del Segura - horta (Meteorihuela), l'Alcúdia - Carriona & el Real de Gandia (Inforatge), Benicàssim - les Vil·les (Soci),  l'Alfàs del Pi - l'Albir (Soci), - - -